createdAt,value
2019-01-23T00:01:02.565Z,-1.00
2019-01-23T00:03:30.128Z,-0.90
2019-01-23T00:05:57.722Z,-0.90
2019-01-23T00:08:25.286Z,-0.90
2019-01-23T00:10:52.761Z,-0.90
2019-01-23T00:13:20.207Z,-1.00
2019-01-23T00:15:47.765Z,-1.00
2019-01-23T00:18:15.257Z,-1.10
2019-01-23T00:20:42.938Z,-1.00
2019-01-23T00:23:10.529Z,-1.00
2019-01-23T00:25:38.117Z,-1.00
2019-01-23T00:28:05.616Z,-1.10
2019-01-23T00:30:33.169Z,-1.10
2019-01-23T00:33:00.717Z,-1.10
2019-01-23T00:35:28.228Z,-1.00
2019-01-23T00:37:55.874Z,-0.90
2019-01-23T00:40:23.375Z,-0.90
2019-01-23T00:42:50.840Z,-0.80
2019-01-23T00:45:18.496Z,-0.80
2019-01-23T00:47:46.111Z,-0.80
2019-01-23T00:50:13.892Z,-0.80
2019-01-23T00:52:41.357Z,-0.80
2019-01-23T00:55:10.384Z,-0.80
2019-01-23T00:57:37.844Z,-0.70
2019-01-23T01:00:09.960Z,-0.70
2019-01-23T01:02:37.635Z,-0.60
2019-01-23T01:05:05.348Z,-0.60
2019-01-23T01:07:32.947Z,-0.70
2019-01-23T01:10:00.418Z,-0.90
2019-01-23T01:12:27.833Z,-0.90
2019-01-23T01:14:55.437Z,-0.80
2019-01-23T01:17:22.872Z,-0.90
2019-01-23T01:19:50.344Z,-0.80
2019-01-23T01:22:17.812Z,-0.90
2019-01-23T01:24:45.486Z,-1.00
2019-01-23T01:27:12.999Z,-0.90
2019-01-23T01:29:40.456Z,-0.80
2019-01-23T01:32:07.953Z,-0.90
2019-01-23T01:34:35.502Z,-0.90
2019-01-23T01:37:03.286Z,-1.00
2019-01-23T01:39:30.901Z,-1.00
2019-01-23T01:41:58.358Z,-1.10
2019-01-23T01:44:25.941Z,-1.20
2019-01-23T01:46:53.413Z,-1.30
2019-01-23T01:49:21.086Z,-1.30
2019-01-23T01:51:48.709Z,-1.20
2019-01-23T01:54:16.309Z,-1.20
2019-01-23T01:56:43.782Z,-1.20
2019-01-23T01:59:11.214Z,-1.20
2019-01-23T02:01:38.689Z,-1.20
2019-01-23T02:04:06.253Z,-1.10
2019-01-23T02:06:33.744Z,-1.10
2019-01-23T02:09:01.206Z,-1.10
2019-01-23T02:11:30.618Z,-1.20
2019-01-23T02:13:58.157Z,-1.30
2019-01-23T02:16:25.836Z,-1.40
2019-01-23T02:18:53.441Z,-1.40
2019-01-23T02:21:21.074Z,-1.40
2019-01-23T02:23:48.668Z,-1.50
2019-01-23T02:26:16.098Z,-1.40
2019-01-23T02:28:43.569Z,-1.30
2019-01-23T02:31:11.285Z,-1.30
2019-01-23T02:33:39.904Z,-1.20
2019-01-23T02:36:08.743Z,-1.00
2019-01-23T02:38:36.507Z,-1.00
2019-01-23T02:41:04.162Z,-0.90
2019-01-23T02:43:31.672Z,-0.80
2019-01-23T02:45:59.150Z,-0.80
2019-01-23T02:48:26.942Z,-1.00
2019-01-23T02:50:54.660Z,-1.10
2019-01-23T02:53:22.423Z,-1.20
2019-01-23T02:55:49.851Z,-1.20
2019-01-23T02:58:17.566Z,-1.20
2019-01-23T03:00:45.148Z,-1.20
2019-01-23T03:03:12.698Z,-1.10
2019-01-23T03:05:40.257Z,-1.00
2019-01-23T03:08:07.712Z,-1.00
2019-01-23T03:10:35.352Z,-0.90
2019-01-23T03:13:02.901Z,-1.00
2019-01-23T03:15:30.361Z,-1.00
2019-01-23T03:17:57.809Z,-1.10
2019-01-23T03:20:25.522Z,-1.20
2019-01-23T03:22:53.278Z,-1.20
2019-01-23T03:25:21.002Z,-1.20
2019-01-23T03:27:48.635Z,-1.10
2019-01-23T03:30:21.177Z,-1.10
2019-01-23T03:32:48.866Z,-1.10
2019-01-23T03:35:16.804Z,-1.10
2019-01-23T03:37:44.563Z,-1.00
2019-01-23T03:40:14.699Z,-1.10
2019-01-23T03:42:42.233Z,-1.10
2019-01-23T03:45:10.838Z,-1.00
2019-01-23T03:47:38.382Z,-0.90
2019-01-23T03:50:06.665Z,-0.80
2019-01-23T03:52:34.341Z,-0.80
2019-01-23T03:55:02.041Z,-0.80
2019-01-23T03:57:29.559Z,-0.80
2019-01-23T03:59:57.051Z,-0.80
2019-01-23T04:02:24.602Z,-0.90
2019-01-23T04:04:52.296Z,-0.90
2019-01-23T04:07:20.096Z,-0.90
2019-01-23T04:09:47.571Z,-0.90
2019-01-23T04:12:15.275Z,-0.90
2019-01-23T04:14:42.916Z,-0.80
2019-01-23T04:17:10.641Z,-0.80
2019-01-23T04:19:38.196Z,-0.80
2019-01-23T04:22:05.714Z,-0.80
2019-01-23T04:24:33.248Z,-0.90
2019-01-23T04:27:00.690Z,-0.90
2019-01-23T04:29:28.603Z,-1.00
2019-01-23T04:31:56.327Z,-1.10
2019-01-23T04:34:23.772Z,-1.10
2019-01-23T04:36:51.420Z,-1.10
2019-01-23T04:39:19.078Z,-1.20
2019-01-23T04:41:46.655Z,-1.30
2019-01-23T04:44:14.210Z,-1.30
2019-01-23T04:46:41.778Z,-1.30
2019-01-23T04:49:09.311Z,-1.40
2019-01-23T04:51:59.542Z,-1.40
2019-01-23T04:54:27.009Z,-1.40
2019-01-23T04:56:54.606Z,-1.50
2019-01-23T04:59:22.186Z,-1.50
2019-01-23T05:01:49.858Z,-1.40
2019-01-23T05:04:17.636Z,-1.50
2019-01-23T05:06:45.406Z,-1.60
2019-01-23T05:09:13.197Z,-1.60
2019-01-23T05:11:40.934Z,-1.60
2019-01-23T05:14:09.548Z,-1.60
2019-01-23T05:16:37.378Z,-1.60
2019-01-23T05:19:05.083Z,-1.70
2019-01-23T05:21:32.727Z,-1.80
2019-01-23T05:24:00.517Z,-1.80
2019-01-23T05:26:29.854Z,-1.70
2019-01-23T05:28:57.355Z,-1.70
2019-01-23T05:31:24.947Z,-1.70
2019-01-23T05:33:52.829Z,-1.80
2019-01-23T05:36:20.518Z,-1.80
2019-01-23T05:38:48.110Z,-1.90
2019-01-23T05:41:15.849Z,-1.80
2019-01-23T05:43:43.404Z,-1.90
2019-01-23T05:46:10.865Z,-2.00
2019-01-23T05:48:38.365Z,-2.00
2019-01-23T05:51:07.146Z,-2.00
2019-01-23T05:53:37.909Z,-2.00
2019-01-23T05:56:05.446Z,-2.00
2019-01-23T05:58:32.888Z,-1.90
2019-01-23T06:01:00.366Z,-1.80
2019-01-23T06:03:27.889Z,-1.80
2019-01-23T06:05:55.776Z,-1.80
2019-01-23T06:08:23.406Z,-1.70
2019-01-23T06:10:50.862Z,-1.70
2019-01-23T06:13:18.354Z,-1.70
2019-01-23T06:15:47.604Z,-1.70
2019-01-23T06:18:15.074Z,-1.70
2019-01-23T06:20:42.532Z,-1.70
2019-01-23T06:23:10.020Z,-1.70
2019-01-23T06:25:37.668Z,-1.70
2019-01-23T06:28:05.165Z,-1.60
2019-01-23T06:30:32.675Z,-1.60
2019-01-23T06:33:00.277Z,-1.50
2019-01-23T06:35:27.689Z,-1.50
2019-01-23T06:37:56.428Z,-1.50
2019-01-23T06:40:24.357Z,-1.50
2019-01-23T06:42:51.830Z,-1.50
2019-01-23T06:45:19.415Z,-1.40
2019-01-23T06:47:47.640Z,-1.40
2019-01-23T06:50:19.882Z,-1.40
2019-01-23T06:52:50.149Z,-1.50
2019-01-23T06:55:17.692Z,-1.40
2019-01-23T06:57:45.217Z,-1.50
2019-01-23T07:00:17.244Z,-1.50
2019-01-23T07:02:44.609Z,-1.50
2019-01-23T07:05:12.260Z,-1.50
2019-01-23T07:07:39.885Z,-1.50
2019-01-23T07:10:12.735Z,-1.50
2019-01-23T07:12:40.344Z,-1.60
2019-01-23T07:15:08.625Z,-1.60
2019-01-23T07:17:36.169Z,-1.70
2019-01-23T07:20:05.284Z,-1.80
2019-01-23T07:22:32.750Z,-1.80
2019-01-23T07:25:00.212Z,-1.80
2019-01-23T07:27:27.616Z,-1.80
2019-01-23T07:29:55.052Z,-1.80
2019-01-23T07:32:22.599Z,-1.80
2019-01-23T07:34:50.030Z,-1.80
2019-01-23T07:37:17.532Z,-1.80
2019-01-23T07:39:45.046Z,-1.80
2019-01-23T07:42:14.531Z,-1.70
2019-01-23T07:44:51.873Z,-1.70
2019-01-23T07:47:19.436Z,-1.70
2019-01-23T07:49:46.905Z,-1.60
2019-01-23T07:52:15.386Z,-1.50
2019-01-23T07:54:42.795Z,-1.60
2019-01-23T07:57:10.243Z,-1.70
2019-01-23T07:59:37.749Z,-1.60
2019-01-23T08:02:05.574Z,-1.50
2019-01-23T08:04:32.998Z,-1.50
2019-01-23T08:07:00.769Z,-1.40
2019-01-23T08:09:28.301Z,-1.40
2019-01-23T08:11:55.790Z,-1.30
2019-01-23T08:14:23.232Z,-1.20
2019-01-23T08:16:50.702Z,-0.80
2019-01-23T08:19:18.149Z,-0.50
2019-01-23T08:21:45.809Z,-0.30
2019-01-23T08:24:13.268Z,-0.20
2019-01-23T08:26:40.809Z,-0.10
2019-01-23T08:29:08.404Z,-0.10
2019-01-23T08:31:36.099Z,0.00
2019-01-23T08:34:03.638Z,0.10
2019-01-23T08:36:31.270Z,0.10
2019-01-23T08:38:58.722Z,0.20
2019-01-23T08:41:26.220Z,0.30
2019-01-23T08:43:53.861Z,0.50
2019-01-23T08:46:22.416Z,0.90
2019-01-23T08:48:49.942Z,0.90
2019-01-23T08:51:17.420Z,0.80
2019-01-23T08:53:44.892Z,1.00
2019-01-23T08:56:12.498Z,1.20
2019-01-23T08:58:40.072Z,1.30
2019-01-23T09:01:07.639Z,1.30
2019-01-23T09:03:36.377Z,1.30
2019-01-23T09:06:04.934Z,1.40
2019-01-23T09:08:37.757Z,1.50
2019-01-23T09:11:05.306Z,1.50
2019-01-23T09:13:34.104Z,1.40
2019-01-23T09:16:02.606Z,1.30
2019-01-23T09:18:30.244Z,1.20
2019-01-23T09:20:57.719Z,1.00
2019-01-23T09:23:25.172Z,0.90
2019-01-23T09:25:52.823Z,0.90
2019-01-23T09:28:20.462Z,1.00
2019-01-23T09:31:03.942Z,1.10
2019-01-23T09:33:45.783Z,1.20
2019-01-23T09:36:45.217Z,1.50
2019-01-23T09:39:38.718Z,1.60
2019-01-23T09:42:41.129Z,1.70
2019-01-23T09:45:37.311Z,1.60
2019-01-23T09:48:46.688Z,1.60
2019-01-23T09:51:54.859Z,1.60
2019-01-23T09:54:22.620Z,2.00
2019-01-23T09:56:51.940Z,2.50
2019-01-23T09:59:19.460Z,2.90
2019-01-23T10:01:47.918Z,3.30
2019-01-23T10:04:17.931Z,3.50
2019-01-23T10:06:45.488Z,3.80
2019-01-23T10:09:12.964Z,4.30
2019-01-23T10:11:40.437Z,4.40
2019-01-23T10:14:07.974Z,4.40
2019-01-23T10:16:35.464Z,4.70
2019-01-23T10:19:03.184Z,5.10
2019-01-23T10:21:30.679Z,5.70
2019-01-23T10:23:58.143Z,6.50
2019-01-23T10:26:25.613Z,6.50
2019-01-23T10:28:53.049Z,7.00
2019-01-23T10:31:20.663Z,7.20
2019-01-23T10:33:48.297Z,7.50
2019-01-23T10:36:15.804Z,7.60
2019-01-23T10:38:43.446Z,7.60
2019-01-23T10:41:11.100Z,7.40
2019-01-23T10:43:38.793Z,7.10
2019-01-23T10:46:06.560Z,7.00
2019-01-23T10:48:37.997Z,6.90
2019-01-23T10:51:03.447Z,6.60
2019-01-23T10:53:31.022Z,6.40
2019-01-23T10:55:58.449Z,6.30
2019-01-23T10:58:26.096Z,6.30
2019-01-23T11:00:55.584Z,6.10
2019-01-23T11:03:24.078Z,5.90
2019-01-23T11:05:51.692Z,5.90
2019-01-23T11:08:19.329Z,5.50
2019-01-23T11:10:46.790Z,5.30
2019-01-23T11:13:14.478Z,5.00
2019-01-23T11:15:41.909Z,4.70
2019-01-23T11:18:09.378Z,4.80
2019-01-23T11:20:36.847Z,4.30
2019-01-23T11:23:04.453Z,4.10
2019-01-23T11:25:32.205Z,3.90
2019-01-23T11:27:59.847Z,3.90
2019-01-23T11:30:27.284Z,3.80
2019-01-23T11:32:54.863Z,3.80
2019-01-23T11:35:22.985Z,3.70
2019-01-23T11:37:50.908Z,3.60
2019-01-23T11:40:24.305Z,3.50
2019-01-23T11:42:51.884Z,3.30
2019-01-23T11:45:19.355Z,3.40
2019-01-23T11:47:47.070Z,3.30
2019-01-23T11:50:21.162Z,3.30
2019-01-23T11:52:44.669Z,3.50
2019-01-23T11:55:12.541Z,3.80
2019-01-23T11:57:40.166Z,3.90
2019-01-23T12:00:11.778Z,3.90
2019-01-23T12:02:39.344Z,3.60
2019-01-23T12:05:09.112Z,3.40
2019-01-23T12:07:36.794Z,3.20
2019-01-23T12:10:05.037Z,2.90
2019-01-23T12:12:32.564Z,2.80
2019-01-23T12:15:00.251Z,2.70
2019-01-23T12:17:27.778Z,2.50
2019-01-23T12:19:55.241Z,2.60
2019-01-23T12:22:22.890Z,2.60
2019-01-23T12:24:50.284Z,2.40
2019-01-23T12:27:17.959Z,2.50
2019-01-23T12:29:45.449Z,2.50
2019-01-23T12:32:14.019Z,2.50
2019-01-23T12:34:41.713Z,2.40
2019-01-23T12:37:09.286Z,2.50
2019-01-23T12:39:36.833Z,2.50
2019-01-23T12:42:04.431Z,2.60
2019-01-23T12:44:31.898Z,2.90
2019-01-23T12:46:59.682Z,3.00
2019-01-23T12:49:28.241Z,3.30
2019-01-23T12:51:55.669Z,3.70
2019-01-23T12:54:23.346Z,3.90
2019-01-23T12:56:50.783Z,3.90
2019-01-23T12:59:18.249Z,4.00
2019-01-23T13:01:47.030Z,4.10
2019-01-23T13:04:14.709Z,4.20
2019-01-23T13:06:43.183Z,4.30
2019-01-23T13:09:12.133Z,4.30
2019-01-23T13:11:39.653Z,4.30
2019-01-23T13:14:09.053Z,4.30
2019-01-23T13:16:36.660Z,4.40
2019-01-23T13:19:04.374Z,4.40
2019-01-23T13:21:31.769Z,4.30
2019-01-23T13:23:59.390Z,4.20
2019-01-23T13:26:26.854Z,4.20
2019-01-23T13:28:54.520Z,4.20
2019-01-23T13:31:22.152Z,4.20
2019-01-23T13:33:49.646Z,4.30
2019-01-23T13:36:17.070Z,4.30
2019-01-23T13:38:44.779Z,4.30
2019-01-23T13:41:12.267Z,4.20
2019-01-23T13:43:41.710Z,4.20
2019-01-23T13:46:09.303Z,4.00
2019-01-23T13:48:36.894Z,3.70
2019-01-23T13:51:04.361Z,3.60
2019-01-23T13:53:31.830Z,3.50
2019-01-23T13:55:59.457Z,3.40
2019-01-23T13:58:27.008Z,3.40
2019-01-23T14:00:54.581Z,3.30
2019-01-23T14:03:22.193Z,3.30
2019-01-23T14:05:49.636Z,3.20
2019-01-23T14:08:17.265Z,3.20
2019-01-23T14:10:44.879Z,3.20
2019-01-23T14:13:12.334Z,3.20
2019-01-23T14:15:40.170Z,3.20
2019-01-23T14:18:08.578Z,3.20
2019-01-23T14:20:36.097Z,3.20
2019-01-23T14:23:03.889Z,3.20
2019-01-23T14:25:31.421Z,3.20
2019-01-23T14:27:58.896Z,3.10
2019-01-23T14:30:45.392Z,3.10
2019-01-23T14:33:12.877Z,3.20
2019-01-23T14:35:44.478Z,3.20
2019-01-23T14:38:12.101Z,3.10
2019-01-23T14:40:39.566Z,3.10
2019-01-23T14:43:07.174Z,3.10
2019-01-23T14:45:34.919Z,3.00
2019-01-23T14:48:02.492Z,3.00
2019-01-23T14:50:30.232Z,3.00
2019-01-23T14:52:57.790Z,2.90
2019-01-23T14:55:25.203Z,2.80
2019-01-23T14:57:52.706Z,2.80
2019-01-23T15:00:22.534Z,2.80
2019-01-23T15:02:50.157Z,2.70
2019-01-23T15:05:18.086Z,2.60
2019-01-23T15:07:45.762Z,2.60
2019-01-23T15:10:16.529Z,2.50
2019-01-23T15:12:44.161Z,2.40
2019-01-23T15:15:11.898Z,2.30
2019-01-23T15:17:39.454Z,2.30
2019-01-23T15:20:14.003Z,2.20
2019-01-23T15:22:41.733Z,2.00
2019-01-23T15:25:09.555Z,2.00
2019-01-23T15:27:37.129Z,1.90
2019-01-23T15:30:05.169Z,1.80
2019-01-23T15:32:33.025Z,1.70
2019-01-23T15:35:00.520Z,1.70
2019-01-23T15:37:28.298Z,1.60
2019-01-23T15:39:55.998Z,1.60
2019-01-23T15:42:23.787Z,1.50
2019-01-23T15:44:51.316Z,1.50
2019-01-23T15:47:19.489Z,1.40
2019-01-23T15:49:49.828Z,1.30
2019-01-23T15:52:19.766Z,1.20
2019-01-23T15:54:50.005Z,1.20
2019-01-23T15:57:18.520Z,1.10
2019-01-23T15:59:46.268Z,1.10
2019-01-23T16:02:13.777Z,1.00
2019-01-23T16:04:41.443Z,0.90
2019-01-23T16:07:09.045Z,0.90
2019-01-23T16:09:36.633Z,0.80
2019-01-23T16:12:04.455Z,0.80
2019-01-23T16:14:32.036Z,0.80
2019-01-23T16:16:59.584Z,0.70
2019-01-23T16:19:27.286Z,0.70
2019-01-23T16:21:54.955Z,0.70
2019-01-23T16:24:31.886Z,0.70
2019-01-23T16:26:59.572Z,0.60
2019-01-23T16:29:27.060Z,0.60
2019-01-23T16:31:55.556Z,0.60
2019-01-23T16:34:23.259Z,0.60
2019-01-23T16:36:53.832Z,0.60
2019-01-23T16:39:21.366Z,0.60
2019-01-23T16:41:48.881Z,0.50
2019-01-23T16:44:16.413Z,0.50
2019-01-23T16:46:43.986Z,0.50
2019-01-23T16:49:11.605Z,0.50
2019-01-23T16:51:39.099Z,0.40
2019-01-23T16:54:06.753Z,0.40
2019-01-23T16:56:34.770Z,0.40
2019-01-23T16:59:03.210Z,0.40
2019-01-23T17:01:30.853Z,0.40
2019-01-23T17:03:58.388Z,0.40
2019-01-23T17:06:27.180Z,0.30
2019-01-23T17:08:54.930Z,0.30
2019-01-23T17:11:22.690Z,0.30
2019-01-23T17:13:50.464Z,0.30
2019-01-23T17:16:18.119Z,0.30
2019-01-23T17:18:48.637Z,0.30
2019-01-23T17:21:17.161Z,0.30
2019-01-23T17:23:44.958Z,0.20
2019-01-23T17:26:12.915Z,0.20
2019-01-23T17:28:40.523Z,0.20
2019-01-23T17:31:08.325Z,0.10
2019-01-23T17:33:37.706Z,0.20
2019-01-23T17:36:05.619Z,0.10
2019-01-23T17:38:33.290Z,0.20
2019-01-23T17:41:00.739Z,0.20
2019-01-23T17:43:28.885Z,0.20
2019-01-23T17:45:56.424Z,0.20
2019-01-23T17:48:24.141Z,0.20
2019-01-23T17:50:52.318Z,0.20
2019-01-23T17:53:20.078Z,0.10
2019-01-23T17:55:47.639Z,0.10
2019-01-23T17:58:15.313Z,0.10
2019-01-23T18:00:50.056Z,0.10
2019-01-23T18:03:18.065Z,0.10
2019-01-23T18:05:51.102Z,0.10
2019-01-23T18:08:15.576Z,0.10
2019-01-23T18:10:43.227Z,0.10
2019-01-23T18:13:10.791Z,0.10
2019-01-23T18:15:38.292Z,0.10
2019-01-23T18:18:06.037Z,0.20
2019-01-23T18:20:33.963Z,0.20
2019-01-23T18:23:01.654Z,0.20
2019-01-23T18:25:29.663Z,0.20
2019-01-23T18:27:57.244Z,0.20
2019-01-23T18:30:33.860Z,0.20
2019-01-23T18:33:02.347Z,0.20
2019-01-23T18:35:37.803Z,0.20
2019-01-23T18:38:29.551Z,0.20
2019-01-23T18:41:26.212Z,0.20
2019-01-23T18:44:14.767Z,0.20
2019-01-23T18:47:35.992Z,0.30
2019-01-23T18:50:44.030Z,0.30
2019-01-23T18:53:11.686Z,0.20
2019-01-23T18:55:42.176Z,0.20
2019-01-23T18:58:09.827Z,0.20
2019-01-23T19:00:38.864Z,0.20
2019-01-23T19:03:07.237Z,0.20
2019-01-23T19:05:35.081Z,0.20
2019-01-23T19:08:06.493Z,0.20
2019-01-23T19:10:39.222Z,0.20
2019-01-23T19:13:07.065Z,0.20
2019-01-23T19:15:34.923Z,0.20
2019-01-23T19:18:02.815Z,0.20
2019-01-23T19:20:30.308Z,0.20
2019-01-23T19:22:57.878Z,0.20
2019-01-23T19:25:25.926Z,0.20
2019-01-23T19:27:53.480Z,0.20
2019-01-23T19:30:21.381Z,0.10
2019-01-23T19:32:48.984Z,0.00
2019-01-23T19:35:16.605Z,0.00
2019-01-23T19:40:33.153Z,0.00
2019-01-23T19:43:01.006Z,0.00
2019-01-23T19:45:29.588Z,-0.10
2019-01-23T19:47:57.327Z,0.00
2019-01-23T19:50:25.231Z,-0.10
2019-01-23T19:52:52.862Z,-0.10
2019-01-23T19:55:20.473Z,-0.10
2019-01-23T19:57:48.217Z,-0.10
2019-01-23T20:00:19.197Z,-0.10
2019-01-23T20:02:47.951Z,-0.10
2019-01-23T20:05:19.066Z,0.00
2019-01-23T20:07:48.064Z,0.00
2019-01-23T20:10:17.538Z,0.00
2019-01-23T20:12:45.365Z,0.00
2019-01-23T20:15:14.334Z,0.00
2019-01-23T20:17:43.085Z,0.00
2019-01-23T20:20:11.208Z,0.00
2019-01-23T20:22:41.618Z,0.00
2019-01-23T20:25:11.953Z,0.00
2019-01-23T20:27:39.417Z,0.10
2019-01-23T20:30:21.518Z,0.10
2019-01-23T20:32:49.956Z,0.10
2019-01-23T20:35:17.541Z,0.10
2019-01-23T20:37:45.346Z,0.10
2019-01-23T20:40:14.115Z,0.10
2019-01-23T20:42:42.088Z,0.00
2019-01-23T20:45:11.829Z,0.00
2019-01-23T20:47:39.885Z,0.00
2019-01-23T20:50:13.550Z,0.00
2019-01-23T20:52:41.333Z,0.00
2019-01-23T20:55:09.129Z,0.00
2019-01-23T20:57:36.674Z,-0.10
2019-01-23T21:00:07.491Z,-0.10
2019-01-23T21:02:35.141Z,-0.10
2019-01-23T21:05:02.965Z,-0.10
2019-01-23T21:07:30.541Z,-0.10
2019-01-23T21:09:58.267Z,-0.10
2019-01-23T21:12:29.826Z,-0.10
2019-01-23T21:14:57.885Z,-0.10
2019-01-23T21:17:25.931Z,-0.10
2019-01-23T21:19:53.540Z,-0.10
2019-01-23T21:22:21.160Z,-0.20
2019-01-23T21:24:49.284Z,-0.20
2019-01-23T21:27:17.467Z,-0.30
2019-01-23T21:29:45.452Z,-0.30
2019-01-23T21:32:13.160Z,-0.30
2019-01-23T21:34:40.633Z,-0.30
2019-01-23T21:37:08.196Z,-0.40
2019-01-23T21:39:35.757Z,-0.40
2019-01-23T21:42:03.922Z,-0.40
2019-01-23T21:44:31.528Z,-0.40
2019-01-23T21:47:00.024Z,-0.50
2019-01-23T21:49:29.581Z,-0.50
2019-01-23T21:51:57.220Z,-0.50
2019-01-23T21:54:24.751Z,-0.50
2019-01-23T21:56:52.237Z,-0.50
2019-01-23T21:59:19.856Z,-0.50
2019-01-23T22:01:47.450Z,-0.50
2019-01-23T22:04:14.911Z,-0.50
2019-01-23T22:06:42.460Z,-0.60
2019-01-23T22:09:11.031Z,-0.60
2019-01-23T22:11:43.509Z,-0.60
2019-01-23T22:14:08.398Z,-0.70
2019-01-23T22:16:35.812Z,-0.60
2019-01-23T22:19:03.345Z,-0.70
2019-01-23T22:21:30.887Z,-0.60
2019-01-23T22:23:58.474Z,-0.60
2019-01-23T22:26:25.941Z,-0.60
2019-01-23T22:28:53.431Z,-0.60
2019-01-23T22:31:21.021Z,-0.60
2019-01-23T22:33:48.467Z,-0.60
2019-01-23T22:36:16.121Z,-0.60
2019-01-23T22:38:46.750Z,-0.60
2019-01-23T22:41:14.279Z,-0.60
2019-01-23T22:43:41.705Z,-0.60
2019-01-23T22:46:09.252Z,-0.60
2019-01-23T22:48:36.701Z,-0.60
2019-01-23T22:51:04.428Z,-0.60
2019-01-23T22:53:31.986Z,-0.60
2019-01-23T22:55:59.486Z,-0.50
2019-01-23T22:58:27.236Z,-0.50
2019-01-23T23:01:15.365Z,-0.50
2019-01-23T23:03:43.129Z,-0.50
2019-01-23T23:06:10.999Z,-0.50
2019-01-23T23:08:40.409Z,-0.50
2019-01-23T23:11:08.320Z,-0.50
2019-01-23T23:13:36.898Z,-0.50
2019-01-23T23:16:04.388Z,-0.50
2019-01-23T23:18:32.237Z,-0.50
2019-01-23T23:20:59.986Z,-0.60
2019-01-23T23:23:27.472Z,-0.60
2019-01-23T23:25:55.234Z,-0.60
2019-01-23T23:28:26.028Z,-0.60
2019-01-23T23:30:52.422Z,-0.70
2019-01-23T23:33:20.025Z,-0.70
2019-01-23T23:35:47.495Z,-0.70
2019-01-23T23:38:14.998Z,-0.70
2019-01-23T23:40:42.434Z,-0.70
2019-01-23T23:43:10.109Z,-0.70
2019-01-23T23:45:37.669Z,-0.70
2019-01-23T23:48:05.673Z,-0.70
2019-01-23T23:50:33.137Z,-0.70
2019-01-23T23:53:00.732Z,-0.70
2019-01-23T23:55:28.292Z,-0.70
2019-01-23T23:57:55.874Z,-0.70
